createdAt,value
2023-08-07T00:00:04.556Z,3.95
2023-08-07T00:03:09.131Z,3.90
2023-08-07T00:06:11.440Z,3.72
2023-08-07T00:09:13.555Z,3.88
2023-08-07T00:15:17.566Z,4.28
2023-08-07T00:21:23.900Z,3.20
2023-08-07T00:24:26.151Z,3.72
2023-08-07T00:27:28.390Z,3.75
2023-08-07T00:30:32.218Z,3.83
2023-08-07T00:33:36.167Z,3.95
2023-08-07T00:36:38.355Z,3.65
2023-08-07T00:39:40.214Z,3.40
2023-08-07T00:42:42.565Z,3.20
2023-08-07T00:45:48.404Z,3.63
2023-08-07T00:48:53.648Z,3.47
2023-08-07T00:51:55.704Z,3.33
2023-08-07T00:58:00.044Z,3.35
2023-08-07T01:01:02.848Z,3.53
2023-08-07T01:04:06.469Z,3.70
2023-08-07T01:07:08.540Z,3.28
2023-08-07T01:13:19.993Z,3.63
2023-08-07T01:16:30.263Z,3.33
2023-08-07T01:19:35.706Z,3.50
2023-08-07T01:22:39.183Z,3.60
2023-08-07T01:25:41.811Z,3.22
2023-08-07T01:28:54.547Z,2.90
2023-08-07T01:31:58.564Z,3.78
2023-08-07T01:35:03.099Z,3.53
2023-08-07T01:38:07.117Z,3.40
2023-08-07T01:41:10.285Z,3.35
2023-08-07T01:44:12.739Z,3.17
2023-08-07T01:47:16.013Z,3.40
2023-08-07T01:50:18.159Z,3.30
2023-08-07T01:56:23.481Z,3.45
2023-08-07T02:02:27.552Z,3.78
2023-08-07T02:05:29.650Z,3.67
2023-08-07T02:11:35.078Z,3.15
2023-08-07T02:17:42.100Z,3.67
2023-08-07T02:20:44.715Z,4.28
2023-08-07T02:23:48.095Z,3.50
2023-08-07T02:26:50.157Z,3.47
2023-08-07T02:29:55.416Z,3.15
2023-08-07T02:32:59.498Z,3.30
2023-08-07T02:36:02.227Z,3.10
2023-08-07T02:39:06.704Z,3.13
2023-08-07T02:42:08.790Z,3.53
2023-08-07T02:48:13.374Z,3.42
2023-08-07T02:51:15.413Z,3.38
2023-08-07T02:54:19.003Z,2.97
2023-08-07T02:57:20.975Z,3.95
2023-08-07T03:00:24.433Z,3.33
2023-08-07T03:03:26.758Z,3.72
2023-08-07T03:06:29.142Z,3.67
2023-08-07T03:09:32.649Z,3.20
2023-08-07T03:12:34.840Z,3.55
2023-08-07T03:15:36.852Z,3.03
2023-08-07T03:18:41.801Z,2.88
2023-08-07T03:21:43.977Z,3.20
2023-08-07T03:24:49.484Z,2.95
2023-08-07T03:27:51.668Z,3.40
2023-08-07T03:30:53.658Z,3.55
2023-08-07T03:33:56.901Z,3.75
2023-08-07T03:37:00.864Z,3.50
2023-08-07T03:40:05.127Z,3.63
2023-08-07T03:43:08.418Z,3.78
2023-08-07T03:46:11.657Z,3.58
2023-08-07T03:49:13.853Z,3.28
2023-08-07T03:52:19.721Z,3.67
2023-08-07T03:55:23.540Z,3.47
2023-08-07T03:58:25.625Z,3.47
2023-08-07T04:04:29.870Z,4.05
2023-08-07T04:10:35.341Z,3.65
2023-08-07T04:13:37.423Z,4.40
2023-08-07T04:16:39.799Z,3.83
2023-08-07T04:22:43.804Z,3.38
2023-08-07T04:25:48.513Z,3.80
2023-08-07T04:28:50.707Z,4.80
2023-08-07T04:31:52.882Z,5.20
2023-08-07T04:37:57.740Z,4.63
2023-08-07T04:44:05.804Z,5.07
2023-08-07T04:47:07.991Z,4.95
2023-08-07T04:50:11.156Z,4.78
2023-08-07T04:53:13.344Z,4.38
2023-08-07T04:59:18.279Z,5.03
2023-08-07T05:02:20.728Z,4.70
2023-08-07T05:05:22.836Z,5.22
2023-08-07T05:11:28.082Z,4.72
2023-08-07T05:14:30.781Z,4.95
2023-08-07T05:17:33.165Z,5.53
2023-08-07T05:20:35.529Z,5.18
2023-08-07T05:23:37.519Z,5.47
2023-08-07T05:26:40.786Z,5.30
2023-08-07T05:29:45.828Z,5.20
2023-08-07T05:32:47.945Z,5.07
2023-08-07T05:38:51.824Z,5.25
2023-08-07T05:44:57.966Z,5.85
2023-08-07T05:48:02.758Z,5.18
2023-08-07T05:51:07.778Z,5.22
2023-08-07T05:54:09.839Z,4.43
2023-08-07T06:00:19.227Z,4.55
2023-08-07T06:03:21.265Z,4.70
2023-08-07T06:09:25.205Z,4.67
2023-08-07T06:12:28.684Z,4.75
2023-08-07T06:15:52.355Z,3.63
2023-08-07T06:18:56.806Z,3.47
2023-08-07T06:21:59.485Z,3.65
2023-08-07T06:25:20.603Z,3.38
2023-08-07T06:28:24.003Z,3.50
2023-08-07T06:31:26.211Z,3.40
2023-08-07T06:34:28.960Z,3.45
2023-08-07T06:37:31.169Z,2.80
2023-08-07T06:46:39.116Z,2.70
2023-08-07T06:49:41.069Z,2.95
2023-08-07T06:52:43.142Z,3.10
2023-08-07T06:58:49.568Z,2.70
2023-08-07T07:01:52.151Z,2.80
2023-08-07T07:04:54.307Z,2.88
2023-08-07T07:10:59.637Z,1.95
2023-08-07T07:14:03.208Z,2.05
2023-08-07T07:17:07.129Z,1.90
2023-08-07T07:20:12.459Z,2.13
2023-08-07T07:23:16.945Z,1.83
2023-08-07T07:26:19.143Z,1.92
2023-08-07T07:29:23.345Z,2.10
2023-08-07T07:32:28.370Z,1.77
2023-08-07T07:35:30.377Z,2.22
2023-08-07T07:41:34.919Z,1.90
2023-08-07T07:44:39.908Z,1.95
2023-08-07T07:47:42.090Z,1.80
2023-08-07T07:50:44.520Z,1.70
2023-08-07T07:53:48.014Z,1.98
2023-08-07T07:56:54.991Z,2.30
2023-08-07T08:00:02.421Z,1.95
2023-08-07T08:03:14.067Z,1.73
2023-08-07T08:06:16.311Z,1.83
2023-08-07T08:09:18.551Z,2.10
2023-08-07T08:12:23.512Z,1.95
2023-08-07T08:15:27.071Z,1.90
2023-08-07T08:18:29.241Z,2.10
2023-08-07T08:21:32.482Z,2.05
2023-08-07T08:24:34.708Z,1.70
2023-08-07T08:27:37.323Z,2.15
2023-08-07T08:30:41.191Z,1.65
2023-08-07T08:33:43.145Z,2.60
2023-08-07T08:36:45.221Z,3.72
2023-08-07T08:42:50.363Z,1.80
2023-08-07T08:45:53.880Z,1.83
2023-08-07T08:48:58.836Z,1.60
2023-08-07T08:52:01.319Z,1.70
2023-08-07T08:55:04.042Z,1.85
2023-08-07T08:58:07.816Z,1.60
2023-08-07T09:01:13.691Z,1.70
2023-08-07T09:04:16.107Z,2.00
2023-08-07T09:07:21.287Z,2.10
2023-08-07T09:10:25.206Z,1.80
2023-08-07T09:13:29.284Z,1.38
2023-08-07T09:16:34.059Z,1.80
2023-08-07T09:19:36.531Z,1.48
2023-08-07T09:22:38.957Z,1.50
2023-08-07T09:25:42.289Z,1.42
2023-08-07T09:28:44.509Z,1.77
2023-08-07T09:31:48.877Z,1.98
2023-08-07T09:34:52.074Z,1.92
2023-08-07T09:37:54.358Z,1.58
2023-08-07T09:40:58.896Z,2.05
2023-08-07T09:44:09.139Z,1.83
2023-08-07T09:47:18.061Z,1.80
2023-08-07T09:50:20.064Z,1.50
2023-08-07T09:53:27.578Z,2.15
2023-08-07T09:56:30.439Z,1.92
2023-08-07T09:59:33.800Z,2.45
2023-08-07T10:02:37.492Z,1.90
2023-08-07T10:05:39.798Z,2.08
2023-08-07T10:08:43.546Z,1.70
2023-08-07T10:11:46.348Z,0.98
2023-08-07T10:14:49.389Z,1.10
2023-08-07T10:17:52.907Z,1.40
2023-08-07T10:20:56.397Z,0.98
2023-08-07T10:23:59.660Z,1.08
2023-08-07T10:27:02.485Z,1.15
2023-08-07T10:30:09.032Z,1.25
2023-08-07T10:33:14.423Z,1.80
2023-08-07T10:36:18.308Z,1.65
2023-08-07T10:39:20.356Z,1.50
2023-08-07T10:45:25.254Z,2.10
2023-08-07T10:48:29.581Z,1.50
2023-08-07T10:51:32.809Z,1.58
2023-08-07T10:54:43.940Z,1.70
2023-08-07T10:57:48.421Z,1.90
2023-08-07T11:00:50.466Z,1.75
2023-08-07T11:06:57.921Z,1.60
2023-08-07T11:10:01.078Z,1.52
2023-08-07T11:13:03.116Z,1.85
2023-08-07T11:19:09.514Z,1.20
2023-08-07T11:22:11.517Z,1.05
2023-08-07T11:25:14.811Z,1.33
2023-08-07T11:28:19.458Z,1.25
2023-08-07T11:31:22.889Z,1.10
2023-08-07T11:34:26.864Z,1.02
2023-08-07T11:37:29.300Z,1.10
2023-08-07T11:40:31.192Z,1.45
2023-08-07T11:43:34.814Z,1.30
2023-08-07T11:46:37.193Z,1.83
2023-08-07T11:49:40.695Z,1.42
2023-08-07T11:52:42.749Z,1.10
2023-08-07T11:58:50.546Z,1.40
2023-08-07T12:01:52.677Z,0.70
2023-08-07T12:05:00.731Z,0.90
2023-08-07T12:08:03.719Z,0.90
2023-08-07T12:11:07.162Z,1.20
2023-08-07T12:14:09.236Z,1.33
2023-08-07T12:20:17.770Z,1.80
2023-08-07T12:23:22.600Z,1.42
2023-08-07T12:26:24.695Z,2.03
2023-08-07T12:32:32.335Z,1.60
2023-08-07T12:35:36.040Z,1.88
2023-08-07T12:38:38.146Z,1.38
2023-08-07T12:44:44.652Z,1.67
2023-08-07T12:47:46.709Z,1.80
2023-08-07T12:50:49.879Z,1.50
2023-08-07T12:53:52.674Z,1.58
2023-08-07T12:56:56.651Z,1.73
2023-08-07T12:59:59.174Z,1.70
2023-08-07T13:03:01.210Z,1.50
2023-08-07T13:06:07.707Z,1.73
2023-08-07T13:09:09.616Z,1.55
2023-08-07T13:15:14.920Z,1.80
2023-08-07T13:18:17.905Z,1.20
2023-08-07T13:21:21.385Z,2.13
2023-08-07T13:24:23.442Z,1.70
2023-08-07T13:30:28.661Z,1.67
2023-08-07T13:33:32.805Z,1.15
2023-08-07T13:36:37.590Z,1.60
2023-08-07T13:39:39.540Z,1.60
2023-08-07T13:42:42.246Z,1.38
2023-08-07T13:45:44.255Z,1.13
2023-08-07T13:51:50.096Z,1.42
2023-08-07T13:54:52.315Z,1.60
2023-08-07T13:57:55.840Z,1.38
2023-08-07T14:00:58.759Z,1.30
2023-08-07T14:04:01.080Z,1.83
2023-08-07T14:07:05.433Z,1.65
2023-08-07T14:10:08.529Z,1.65
2023-08-07T14:13:12.853Z,1.65
2023-08-07T14:16:15.023Z,1.75
2023-08-07T14:22:20.195Z,1.80
2023-08-07T14:25:23.534Z,1.23
2023-08-07T14:28:25.469Z,1.92
2023-08-07T14:31:27.423Z,1.45
2023-08-07T14:37:32.773Z,1.50
2023-08-07T14:40:34.784Z,1.40
2023-08-07T14:46:39.674Z,1.30
2023-08-07T14:49:41.787Z,1.30
2023-08-07T14:55:48.210Z,1.13
2023-08-07T14:58:50.255Z,1.25
2023-08-07T15:01:53.712Z,1.40
2023-08-07T15:04:56.023Z,1.20
2023-08-07T15:08:01.510Z,1.35
2023-08-07T15:11:03.565Z,1.60
2023-08-07T15:17:08.331Z,1.30
2023-08-07T15:20:11.466Z,0.95
2023-08-07T15:23:14.953Z,1.10
2023-08-07T15:26:17.192Z,1.15
2023-08-07T15:29:19.691Z,1.48
2023-08-07T15:32:22.826Z,1.17
2023-08-07T15:35:25.443Z,1.40
2023-08-07T15:38:29.649Z,1.30
2023-08-07T15:41:31.614Z,1.13
2023-08-07T15:47:36.228Z,1.15
2023-08-07T15:50:40.051Z,1.17
2023-08-07T15:53:43.648Z,1.20
2023-08-07T15:56:45.496Z,1.20
2023-08-07T15:59:47.425Z,1.20
2023-08-07T16:05:51.443Z,1.65
2023-08-07T16:08:57.417Z,1.30
2023-08-07T16:11:59.609Z,1.02
2023-08-07T16:15:02.724Z,1.35
2023-08-07T16:18:05.235Z,1.80
2023-08-07T16:21:07.156Z,1.38
2023-08-07T16:24:10.517Z,1.15
2023-08-07T16:27:12.611Z,1.55
2023-08-07T16:30:15.008Z,1.25
2023-08-07T16:33:17.338Z,1.25
2023-08-07T16:36:20.738Z,1.45
2023-08-07T16:39:24.682Z,1.63
2023-08-07T16:42:30.124Z,2.03
2023-08-07T16:45:33.118Z,1.30
2023-08-07T16:48:35.090Z,1.33
2023-08-07T16:51:37.145Z,1.05
2023-08-07T17:01:02.624Z,1.70
2023-08-07T17:07:07.078Z,1.77
2023-08-07T17:10:14.630Z,1.42
2023-08-07T17:13:16.632Z,1.25
2023-08-07T17:16:19.416Z,1.55
2023-08-07T17:19:22.647Z,1.80
2023-08-07T17:22:24.788Z,1.20
2023-08-07T17:28:31.419Z,1.38
2023-08-07T17:31:33.505Z,2.05
2023-08-07T17:34:35.638Z,1.73
2023-08-07T17:40:42.104Z,2.08
2023-08-07T17:43:44.065Z,2.33
2023-08-07T17:46:46.115Z,1.77
2023-08-07T17:52:50.411Z,1.63
2023-08-07T17:55:53.840Z,1.55
2023-08-07T17:58:56.557Z,1.65
2023-08-07T18:01:58.605Z,1.48
2023-08-07T18:08:02.568Z,1.15
2023-08-07T18:14:08.164Z,1.23
2023-08-07T18:17:10.173Z,1.70
2023-08-07T18:23:15.478Z,1.85
2023-08-07T18:26:18.786Z,1.20
2023-08-07T18:29:21.111Z,1.27
2023-08-07T18:32:23.644Z,1.30
2023-08-07T18:35:25.893Z,1.40
2023-08-07T18:38:28.485Z,1.30
2023-08-07T18:41:32.006Z,1.65
2023-08-07T18:44:34.080Z,1.30
2023-08-07T18:53:41.180Z,1.50
2023-08-07T18:56:44.919Z,1.17
2023-08-07T18:59:47.070Z,1.30
2023-08-07T19:02:49.518Z,1.40
2023-08-07T19:05:51.784Z,1.70
2023-08-07T19:11:57.789Z,1.60
2023-08-07T19:15:01.202Z,1.40
2023-08-07T19:18:05.144Z,1.80
2023-08-07T19:21:07.372Z,1.88
2023-08-07T19:27:14.092Z,1.73
2023-08-07T19:30:16.057Z,1.50
2023-08-07T19:33:18.237Z,1.88
2023-08-07T19:36:20.896Z,2.00
2023-08-07T19:39:23.756Z,1.83
2023-08-07T19:42:27.488Z,1.38
2023-08-07T19:45:29.604Z,1.00
2023-08-07T19:48:32.151Z,1.25
2023-08-07T19:51:34.336Z,1.35
2023-08-07T19:54:36.677Z,1.23
2023-08-07T19:57:40.248Z,1.30
2023-08-07T20:00:42.347Z,0.98
2023-08-07T20:03:44.926Z,1.50
2023-08-07T20:06:47.068Z,1.20
2023-08-07T20:09:50.233Z,1.30
2023-08-07T20:12:53.845Z,0.98
2023-08-07T20:15:57.043Z,1.33
2023-08-07T20:19:01.727Z,1.05
2023-08-07T20:22:04.035Z,1.17
2023-08-07T20:25:06.915Z,1.30
2023-08-07T20:28:10.596Z,1.30
2023-08-07T20:31:12.583Z,1.13
2023-08-07T20:40:18.960Z,1.23
2023-08-07T20:46:25.440Z,1.63
2023-08-07T20:49:27.519Z,1.85
2023-08-07T20:52:29.792Z,1.23
2023-08-07T20:55:31.907Z,1.13
2023-08-07T20:58:41.973Z,1.20
2023-08-07T21:01:47.980Z,1.15
2023-08-07T21:04:50.234Z,1.40
2023-08-07T21:07:52.590Z,1.33
2023-08-07T21:10:55.734Z,1.52
2023-08-07T21:13:59.889Z,2.08
2023-08-07T21:17:02.065Z,1.10
2023-08-07T21:20:04.775Z,1.88
2023-08-07T21:23:10.035Z,1.23
2023-08-07T21:26:12.225Z,1.10
2023-08-07T21:32:17.771Z,1.20
2023-08-07T21:35:19.865Z,1.58
2023-08-07T21:41:25.254Z,1.50
2023-08-07T21:44:28.796Z,1.60
2023-08-07T21:47:30.802Z,1.40
2023-08-07T21:53:35.201Z,1.27
2023-08-07T21:56:38.488Z,1.85
2023-08-07T21:59:41.801Z,1.48
2023-08-07T22:02:44.534Z,1.63
2023-08-07T22:05:46.664Z,1.60
2023-08-07T22:11:52.443Z,2.00
2023-08-07T22:14:57.402Z,1.38
2023-08-07T22:18:00.810Z,1.63
2023-08-07T22:21:03.126Z,1.55
2023-08-07T22:24:06.750Z,2.03
2023-08-07T22:27:09.632Z,1.58
2023-08-07T22:30:14.696Z,1.70
2023-08-07T22:33:16.848Z,2.10
2023-08-07T22:39:22.251Z,2.17
2023-08-07T22:42:24.818Z,1.63
2023-08-07T22:45:28.326Z,1.83
2023-08-07T22:48:30.461Z,2.00
2023-08-07T22:54:34.435Z,2.47
2023-08-07T23:00:40.072Z,1.80
2023-08-07T23:03:43.376Z,2.20
2023-08-07T23:06:45.453Z,2.20
2023-08-07T23:09:47.514Z,1.65
2023-08-07T23:12:49.530Z,2.65
2023-08-07T23:18:56.115Z,1.92
2023-08-07T23:21:58.337Z,2.47
2023-08-07T23:25:01.653Z,2.28
2023-08-07T23:28:03.956Z,2.78
2023-08-07T23:31:07.380Z,2.20
2023-08-07T23:34:09.772Z,2.17
2023-08-07T23:37:11.823Z,2.10
2023-08-07T23:40:13.803Z,2.10
2023-08-07T23:43:15.821Z,2.55
2023-08-07T23:49:22.008Z,2.25
2023-08-07T23:52:24.079Z,2.20
2023-08-07T23:58:28.386Z,2.17
